Time;durP1;ratioP1;P1;durP2;ratioP2;P2;SDS_P1;SDS_P2;PMS_P1;PMS_P2;Temp;Humidity;BMP_temperature;BMP_pressure;BME280_temperature;BME280_humidity;BME280_pressure;Samples;Min_cycle;Max_cycle;Signal;HPM_P1;HPM_P2
2020/12/26 00:00:17;;;;;;;14.73;7.23;;;2.70;93.20;;;;;;5070975;28;20047;-79
2020/12/26 00:02:42;;;;;;;19.53;8.00;;;2.80;93.20;;;;;;5061520;28;20032;-79
2020/12/26 00:05:08;;;;;;;15.73;7.43;;;2.80;93.20;;;;;;5071587;28;20025;-79
2020/12/26 00:07:33;;;;;;;14.40;8.10;;;2.80;93.20;;;;;;5071746;28;20035;-79
2020/12/26 00:09:59;;;;;;;13.57;6.83;;;2.80;93.20;;;;;;5072637;28;20044;-78
2020/12/26 00:12:25;;;;;;;15.70;7.03;;;2.90;93.30;;;;;;5070843;28;20521;-78
2020/12/26 00:14:50;;;;;;;13.23;6.63;;;2.90;93.30;;;;;;5055974;28;20064;-78
2020/12/26 00:17:16;;;;;;;15.37;6.87;;;2.90;93.30;;;;;;5060666;28;20021;-79
2020/12/26 00:19:41;;;;;;;15.00;8.17;;;2.90;93.30;;;;;;5071672;28;20028;-78
2020/12/26 00:22:07;;;;;;;16.70;7.53;;;3.00;93.30;;;;;;5063937;28;20033;-79
2020/12/26 00:24:32;;;;;;;14.63;6.87;;;3.00;93.30;;;;;;5063505;28;20029;-79
2020/12/26 00:26:58;;;;;;;14.00;6.63;;;3.00;93.30;;;;;;5066318;28;20031;-79
2020/12/26 00:29:24;;;;;;;13.67;6.87;;;3.10;93.20;;;;;;5063149;28;20111;-79
2020/12/26 00:31:50;;;;;;;18.73;7.03;;;3.10;93.20;;;;;;5057987;28;20038;-79
2020/12/26 00:34:15;;;;;;;23.10;7.83;;;3.10;93.20;;;;;;5060448;28;20075;-79
2020/12/26 00:36:41;;;;;;;15.50;7.00;;;3.10;93.20;;;;;;5071629;28;20024;-79
2020/12/26 00:39:07;;;;;;;10.70;7.03;;;3.00;93.10;;;;;;5057016;28;20469;-79
2020/12/26 00:41:32;;;;;;;13.50;6.87;;;3.10;93.20;;;;;;5071243;28;20028;-79
2020/12/26 00:43:58;;;;;;;16.33;7.50;;;3.20;93.20;;;;;;5066126;28;20064;-79
2020/12/26 00:46:23;;;;;;;17.37;6.87;;;3.20;93.20;;;;;;5066870;28;20025;-79
2020/12/26 00:48:50;;;;;;;14.30;7.43;;;3.20;93.10;;;;;;5066612;28;20028;-78
2020/12/26 00:51:15;;;;;;;15.17;7.33;;;3.20;93.10;;;;;;5062691;28;20112;-79
2020/12/26 00:53:41;;;;;;;18.77;8.20;;;3.20;93.20;;;;;;5054902;28;20040;-79
2020/12/26 00:56:07;;;;;;;14.73;7.77;;;3.20;93.20;;;;;;5062014;28;20024;-79
2020/12/26 00:58:32;;;;;;;15.17;8.43;;;3.20;93.20;;;;;;5055849;28;20477;-79
2020/12/26 01:00:58;;;;;;;15.77;9.03;;;3.20;93.10;;;;;;5072186;28;20514;-79
2020/12/26 01:03:23;;;;;;;21.47;9.23;;;3.30;93.10;;;;;;5065941;28;20062;-79
2020/12/26 01:05:49;;;;;;;19.00;8.67;;;3.30;93.10;;;;;;5062455;28;20025;-79
2020/12/26 01:08:15;;;;;;;18.63;8.77;;;3.30;93.10;;;;;;5056343;28;20366;-79
2020/12/26 01:10:40;;;;;;;14.80;7.47;;;3.30;93.10;;;;;;5054006;28;20045;-79
2020/12/26 01:13:06;;;;;;;15.23;7.73;;;3.30;93.10;;;;;;5071799;28;20111;-79
2020/12/26 01:15:31;;;;;;;14.37;8.00;;;3.30;93.10;;;;;;5070207;28;20037;-79
2020/12/26 01:17:57;;;;;;;16.87;7.93;;;3.30;93.10;;;;;;5067516;28;20033;-79
2020/12/26 01:20:22;;;;;;;14.50;8.10;;;3.40;93.10;;;;;;5057670;28;20032;-78
2020/12/26 01:22:48;;;;;;;15.23;6.87;;;3.40;93.10;;;;;;5071262;28;20037;-79
2020/12/26 01:25:14;;;;;;;15.93;8.50;;;3.40;93.10;;;;;;5062194;28;20045;-79
2020/12/26 01:27:39;;;;;;;16.53;7.47;;;3.40;93.10;;;;;;5058384;28;20032;-79
2020/12/26 01:30:05;;;;;;;12.77;7.23;;;3.50;93.10;;;;;;5057010;28;20086;-79
2020/12/26 01:32:32;;;;;;;13.40;7.83;;;3.40;93.00;;;;;;5063684;28;20029;-79
2020/12/26 01:34:59;;;;;;;14.63;7.43;;;3.50;93.00;;;;;;5067086;28;20124;-78
2020/12/26 01:37:25;;;;;;;16.93;8.07;;;3.50;93.00;;;;;;5064727;28;20033;-79
2020/12/26 01:39:51;;;;;;;15.37;7.63;;;3.50;93.00;;;;;;5063314;28;20025;-79
2020/12/26 01:42:16;;;;;;;15.03;8.37;;;3.50;93.00;;;;;;5056562;28;20500;-79
2020/12/26 01:44:42;;;;;;;14.33;7.53;;;3.50;93.00;;;;;;5060419;28;20078;-79
2020/12/26 01:47:08;;;;;;;13.87;7.40;;;3.50;93.00;;;;;;5062728;28;20475;-79
2020/12/26 01:49:34;;;;;;;12.00;6.83;;;3.50;93.00;;;;;;5053111;28;20033;-72
2020/12/26 01:52:01;;;;;;;14.47;7.27;;;3.60;93.00;;;;;;5067013;28;20036;-79
2020/12/26 01:54:28;;;;;;;14.27;7.67;;;3.60;93.00;;;;;;5066579;28;20024;-79
2020/12/26 01:56:55;;;;;;;14.57;7.27;;;3.60;93.00;;;;;;5060148;28;20020;-79
2020/12/26 01:59:20;;;;;;;10.63;6.93;;;3.60;93.00;;;;;;5049938;28;20036;-79
2020/12/26 02:01:50;;;;;;;14.17;6.80;;;3.70;93.00;;;;;;5050289;28;20025;-79
2020/12/26 02:04:17;;;;;;;16.80;8.73;;;3.70;93.00;;;;;;5064767;28;20064;-79
2020/12/26 02:06:46;;;;;;;13.53;7.33;;;3.70;93.10;;;;;;5063739;28;20082;-79
2020/12/26 02:09:12;;;;;;;16.23;7.43;;;3.70;93.00;;;;;;5051287;28;20049;-79
2020/12/26 02:11:38;;;;;;;14.73;6.97;;;3.70;93.00;;;;;;5054830;28;20024;-79
2020/12/26 02:14:04;;;;;;;17.23;6.73;;;3.70;93.00;;;;;;5064837;28;20358;-79
2020/12/26 02:16:30;;;;;;;19.00;6.90;;;3.80;93.00;;;;;;5071049;28;20048;-78
2020/12/26 02:18:55;;;;;;;13.63;6.50;;;3.80;93.00;;;;;;5055928;28;20418;-79
2020/12/26 02:21:22;;;;;;;15.10;7.23;;;3.80;93.00;;;;;;5061041;28;20111;-78
2020/12/26 02:23:48;;;;;;;14.10;7.10;;;3.90;93.00;;;;;;5062694;28;20021;-79
2020/12/26 02:26:14;;;;;;;14.60;6.53;;;3.90;93.00;;;;;;5060529;28;20029;-79
2020/12/26 02:28:40;;;;;;;13.37;6.83;;;3.90;93.00;;;;;;5069402;28;20380;-79
2020/12/26 02:31:07;;;;;;;13.90;6.87;;;3.90;93.00;;;;;;5062934;28;20036;-79
2020/12/26 02:33:34;;;;;;;17.50;6.60;;;3.90;92.90;;;;;;5053743;28;20434;-79
2020/12/26 02:36:04;;;;;;;13.73;6.50;;;4.00;93.00;;;;;;5070289;28;20025;-79
2020/12/26 02:38:30;;;;;;;12.27;6.70;;;4.00;93.00;;;;;;5055580;28;20029;-79
2020/12/26 02:40:56;;;;;;;21.10;7.40;;;4.00;92.90;;;;;;5056963;28;20036;-79
2020/12/26 02:43:26;;;;;;;14.87;7.27;;;4.00;92.90;;;;;;5065528;28;20584;-79
2020/12/26 02:45:54;;;;;;;10.07;6.03;;;4.00;92.90;;;;;;5059980;28;20085;-79
2020/12/26 02:48:20;;;;;;;14.47;6.57;;;4.10;93.00;;;;;;5065108;28;20031;-79
2020/12/26 02:50:45;;;;;;;16.40;6.37;;;4.10;93.00;;;;;;5063971;28;20025;-79
2020/12/26 02:53:11;;;;;;;12.00;7.10;;;4.10;93.00;;;;;;5060051;28;20099;-78
2020/12/26 02:55:36;;;;;;;13.10;7.73;;;4.10;93.00;;;;;;5060534;28;20037;-78
2020/12/26 02:58:03;;;;;;;13.93;6.97;;;4.20;93.00;;;;;;5052289;28;20029;-78
2020/12/26 03:00:29;;;;;;;11.10;6.93;;;4.10;93.00;;;;;;5069216;28;20115;-79
2020/12/26 03:02:54;;;;;;;15.13;7.23;;;4.20;93.00;;;;;;5060916;28;20119;-78
2020/12/26 03:05:20;;;;;;;11.67;7.23;;;4.20;93.00;;;;;;5055218;28;20115;-79
2020/12/26 03:07:46;;;;;;;16.07;7.47;;;4.20;93.00;;;;;;5051900;28;20481;-79
2020/12/26 03:10:11;;;;;;;15.50;7.80;;;4.20;93.00;;;;;;5057640;28;20051;-79
2020/12/26 03:12:37;;;;;;;16.53;8.23;;;4.20;93.00;;;;;;5057024;28;20033;-79
2020/12/26 03:15:04;;;;;;;13.47;8.00;;;4.20;92.90;;;;;;5055236;28;20115;-79
2020/12/26 03:17:29;;;;;;;22.53;9.20;;;4.20;92.90;;;;;;5058606;28;20039;-79
2020/12/26 03:19:55;;;;;;;15.13;7.53;;;4.20;92.90;;;;;;5066030;28;20111;-78
2020/12/26 03:22:21;;;;;;;11.70;7.70;;;4.20;92.80;;;;;;5057242;28;20032;-79
2020/12/26 03:24:46;;;;;;;16.77;8.47;;;4.20;92.80;;;;;;5055832;28;20460;-79
2020/12/26 03:27:12;;;;;;;18.90;8.30;;;4.20;92.80;;;;;;5068937;28;20078;-78
2020/12/26 03:29:38;;;;;;;15.63;8.03;;;4.20;92.80;;;;;;5053868;28;20362;-79
2020/12/26 03:32:03;;;;;;;14.73;8.57;;;4.10;92.70;;;;;;5039637;28;20027;-79
2020/12/26 03:34:29;;;;;;;12.63;7.93;;;4.10;92.70;;;;;;5053205;28;20496;-79
2020/12/26 03:36:54;;;;;;;14.00;7.83;;;4.10;92.70;;;;;;5060177;28;20056;-79
2020/12/26 03:39:20;;;;;;;14.97;8.00;;;4.00;92.70;;;;;;5061821;28;20036;-79
2020/12/26 03:41:45;;;;;;;14.60;7.27;;;4.00;92.60;;;;;;5059628;28;20061;-79
2020/12/26 03:44:11;;;;;;;14.27;7.67;;;3.90;92.60;;;;;;5064523;28;20108;-79
2020/12/26 03:46:37;;;;;;;14.90;8.07;;;3.90;92.70;;;;;;5027138;28;20037;-79
2020/12/26 03:49:03;;;;;;;16.47;7.80;;;3.90;92.70;;;;;;5061206;28;20091;-79
2020/12/26 03:51:28;;;;;;;11.67;7.00;;;3.80;92.70;;;;;;5065806;28;20059;-80
2020/12/26 03:53:54;;;;;;;14.43;6.87;;;3.80;92.80;;;;;;5045473;28;20033;-79
2020/12/26 03:56:20;;;;;;;11.30;6.40;;;3.70;92.90;;;;;;5075489;28;20048;-80
2020/12/26 03:58:46;;;;;;;12.40;6.77;;;3.70;93.00;;;;;;5074564;28;20033;-79
2020/12/26 04:01:12;;;;;;;10.50;5.47;;;3.70;93.00;;;;;;5068388;28;20036;-80
2020/12/26 04:03:38;;;;;;;13.50;6.37;;;3.60;93.10;;;;;;5063215;28;20146;-80
2020/12/26 04:06:04;;;;;;;11.70;6.77;;;3.60;93.20;;;;;;5064420;28;20040;-79
2020/12/26 04:08:30;;;;;;;12.63;5.87;;;3.60;93.30;;;;;;5063285;28;20033;-80
2020/12/26 04:10:56;;;;;;;12.43;5.97;;;3.60;93.30;;;;;;5068433;28;20032;-79
2020/12/26 04:13:21;;;;;;;11.13;5.43;;;3.60;93.40;;;;;;5061969;28;20036;-79
2020/12/26 04:15:47;;;;;;;11.37;6.23;;;3.50;93.40;;;;;;5070920;28;20400;-79
2020/12/26 04:18:13;;;;;;;15.40;6.33;;;3.50;93.30;;;;;;5065153;28;20028;-79
2020/12/26 04:20:38;;;;;;;10.77;5.90;;;3.50;93.30;;;;;;5068063;28;20117;-79
2020/12/26 04:23:04;;;;;;;13.40;5.67;;;3.50;93.50;;;;;;5067276;28;20025;-79
2020/12/26 04:25:30;;;;;;;10.03;5.43;;;3.50;93.40;;;;;;5067615;28;20039;-80
2020/12/26 04:27:56;;;;;;;11.37;5.50;;;3.40;93.50;;;;;;5074674;28;20032;-79
2020/12/26 04:30:22;;;;;;;16.37;5.70;;;3.40;93.50;;;;;;5063811;28;20465;-79
2020/12/26 04:32:48;;;;;;;14.97;5.97;;;3.40;93.50;;;;;;5075078;28;20035;-79
2020/12/26 04:35:13;;;;;;;14.17;5.67;;;3.40;93.60;;;;;;5057932;28;20059;-79
2020/12/26 04:37:39;;;;;;;10.70;5.73;;;3.40;93.70;;;;;;5073312;28;20458;-79
2020/12/26 04:40:05;;;;;;;12.10;6.23;;;3.30;93.60;;;;;;5054883;28;20037;-79
2020/12/26 04:42:33;;;;;;;13.80;5.50;;;3.40;93.70;;;;;;5073135;28;20028;-79
2020/12/26 04:44:59;;;;;;;11.47;5.67;;;3.40;93.70;;;;;;5060280;28;20044;-79
2020/12/26 04:47:29;;;;;;;12.93;5.17;;;3.30;93.90;;;;;;5064324;28;20124;-80
2020/12/26 04:49:59;;;;;;;8.77;5.10;;;3.30;93.80;;;;;;5068983;28;20052;-79
2020/12/26 04:52:30;;;;;;;13.37;5.23;;;3.30;93.80;;;;;;5065918;28;20025;-79
2020/12/26 04:54:56;;;;;;;13.30;5.90;;;3.30;93.80;;;;;;5059003;28;20188;-79
2020/12/26 04:57:22;;;;;;;12.83;6.03;;;3.30;93.80;;;;;;5070902;28;20086;-79
2020/12/26 04:59:48;;;;;;;11.50;5.60;;;3.20;93.70;;;;;;5063115;28;20389;-79
2020/12/26 05:02:15;;;;;;;10.60;5.10;;;3.20;93.80;;;;;;5064369;28;20021;-79
2020/12/26 05:04:43;;;;;;;9.13;5.87;;;3.20;93.90;;;;;;5063269;28;20599;-78
2020/12/26 05:07:11;;;;;;;15.13;4.80;;;3.20;93.80;;;;;;5061677;28;20053;-79
2020/12/26 05:09:36;;;;;;;8.47;4.63;;;3.20;93.80;;;;;;5062799;28;20059;-78
2020/12/26 05:12:02;;;;;;;12.67;5.03;;;3.20;93.90;;;;;;5064257;28;20032;-79
2020/12/26 05:14:30;;;;;;;11.20;4.10;;;3.20;93.90;;;;;;5055583;28;20469;-79
2020/12/26 05:16:56;;;;;;;10.10;4.83;;;3.10;93.80;;;;;;5070439;28;20067;-79
2020/12/26 05:19:22;;;;;;;9.47;4.60;;;3.10;93.90;;;;;;5059657;28;20142;-79
2020/12/26 05:21:51;;;;;;;9.27;4.67;;;3.10;94.00;;;;;;5055820;28;20025;-79
2020/12/26 05:24:18;;;;;;;8.60;4.43;;;3.10;94.00;;;;;;5069459;28;20476;-79
2020/12/26 05:26:45;;;;;;;10.13;4.37;;;3.10;94.00;;;;;;5073353;28;20025;-79
2020/12/26 05:29:13;;;;;;;9.80;5.70;;;3.10;94.10;;;;;;5064956;28;20400;-79
2020/12/26 05:31:46;;;;;;;21.90;5.03;;;3.10;94.50;;;;;;5063063;28;20052;-79
2020/12/26 05:34:12;;;;;;;14.10;5.03;;;3.10;94.30;;;;;;5063257;28;20032;-78
2020/12/26 05:36:38;;;;;;;10.47;4.93;;;3.10;94.40;;;;;;5064357;28;20432;-78
2020/12/26 05:39:05;;;;;;;9.53;5.57;;;3.10;94.40;;;;;;5066655;28;20089;-78
2020/12/26 05:41:31;;;;;;;10.83;6.00;;;3.10;94.40;;;;;;5057497;28;20033;-79
2020/12/26 05:43:58;;;;;;;12.53;5.33;;;3.10;94.40;;;;;;5065803;28;20484;-79
2020/12/26 05:46:24;;;;;;;12.60;6.40;;;3.10;94.40;;;;;;5074159;28;20036;-78
2020/12/26 05:48:50;;;;;;;14.73;6.07;;;3.10;94.50;;;;;;5074182;28;20024;-78
2020/12/26 05:51:26;;;;;;;12.00;7.53;;;3.10;94.60;;;;;;5070090;28;20017;-78
2020/12/26 05:54:03;;;;;;;10.80;6.83;;;3.10;94.50;;;;;;5057133;28;20484;-78
2020/12/26 05:56:33;;;;;;;11.53;5.93;;;3.20;94.50;;;;;;5065913;28;20409;-79
2020/12/26 05:58:58;;;;;;;12.93;6.70;;;3.20;94.50;;;;;;5066248;28;20052;-78
2020/12/26 06:01:24;;;;;;;13.73;7.33;;;3.20;94.40;;;;;;5056600;28;20067;-79
2020/12/26 06:03:49;;;;;;;14.43;6.43;;;3.10;94.50;;;;;;5054242;28;20037;-78
2020/12/26 06:06:15;;;;;;;13.73;6.70;;;3.20;94.50;;;;;;5067022;28;20028;-78
2020/12/26 06:08:42;;;;;;;16.77;7.23;;;3.10;94.50;;;;;;5055492;28;20457;-78
2020/12/26 06:11:08;;;;;;;16.63;8.17;;;3.20;94.60;;;;;;5063029;28;20025;-78
2020/12/26 06:13:36;;;;;;;21.03;8.30;;;3.20;94.90;;;;;;5051227;28;20046;-78
2020/12/26 06:16:09;;;;;;;15.00;8.53;;;3.20;94.60;;;;;;5063245;28;20020;-78
2020/12/26 06:18:40;;;;;;;16.10;8.03;;;3.20;94.90;;;;;;5072488;28;20037;-78
2020/12/26 06:21:07;;;;;;;20.77;8.87;;;3.20;94.60;;;;;;5062870;28;20475;-78
2020/12/26 06:23:38;;;;;;;15.70;8.70;;;3.20;94.60;;;;;;5053947;28;20033;-79
2020/12/26 06:26:04;;;;;;;14.77;8.17;;;3.20;94.60;;;;;;5067223;28;20028;-79
2020/12/26 06:28:32;;;;;;;17.10;9.20;;;3.20;94.50;;;;;;5056094;28;20029;-79
2020/12/26 06:31:03;;;;;;;19.53;8.77;;;3.20;94.50;;;;;;5063046;28;20074;-79
2020/12/26 06:33:39;;;;;;;14.60;9.50;;;3.20;94.50;;;;;;5073315;28;20512;-78
2020/12/26 06:36:06;;;;;;;15.30;9.40;;;3.20;94.60;;;;;;5061151;28;20052;-79
2020/12/26 06:38:32;;;;;;;17.03;10.67;;;3.20;94.60;;;;;;5060053;28;20033;-78
2020/12/26 06:41:05;;;;;;;17.90;10.70;;;3.20;94.60;;;;;;5065949;28;20047;-79
2020/12/26 06:43:55;;;;;;;20.70;11.50;;;3.30;94.60;;;;;;5055115;28;20029;-79
2020/12/26 06:46:21;;;;;;;18.80;10.40;;;3.30;94.70;;;;;;5065903;28;20052;-79
2020/12/26 06:48:48;;;;;;;17.27;10.93;;;3.30;94.70;;;;;;5072283;28;20063;-78
2020/12/26 06:51:38;;;;;;;24.70;11.60;;;3.30;94.70;;;;;;5066949;28;20028;-79
2020/12/26 06:54:07;;;;;;;20.33;11.40;;;3.40;94.70;;;;;;5071348;28;20078;-79
2020/12/26 06:56:33;;;;;;;21.00;12.10;;;3.40;94.60;;;;;;5069651;28;20025;-79
2020/12/26 06:58:59;;;;;;;22.60;12.20;;;3.50;94.60;;;;;;5052436;28;20057;-78
2020/12/26 07:01:25;;;;;;;17.00;11.20;;;3.40;94.60;;;;;;5064070;28;20052;-78
2020/12/26 07:04:22;;;;;;;21.03;12.43;;;3.50;94.50;;;;;;5052682;28;20033;-80
2020/12/26 07:06:53;;;;;;;23.87;12.67;;;3.50;94.50;;;;;;5065960;28;20114;-79
2020/12/26 07:09:41;;;;;;;22.13;13.87;;;3.50;94.40;;;;;;5064305;28;20111;-79
2020/12/26 07:12:08;;;;;;;20.50;12.27;;;3.50;94.60;;;;;;5058821;28;20031;-79
2020/12/26 07:14:44;;;;;;;21.33;11.93;;;3.50;94.40;;;;;;5060238;28;20471;-79
2020/12/26 07:17:13;;;;;;;23.63;13.10;;;3.50;94.30;;;;;;5066937;28;20028;-79
2020/12/26 07:19:43;;;;;;;20.07;11.10;;;3.60;94.30;;;;;;5054751;28;20064;-79
2020/12/26 07:22:21;;;;;;;19.07;12.27;;;3.60;94.30;;;;;;5073269;28;20070;-79
2020/12/26 07:24:50;;;;;;;22.20;13.17;;;3.60;94.20;;;;;;5063567;28;20051;-80
2020/12/26 07:27:21;;;;;;;25.93;14.30;;;3.60;94.20;;;;;;5063521;28;20024;-79
2020/12/26 07:29:54;;;;;;;19.07;12.87;;;3.60;94.20;;;;;;5064162;28;20090;-79
2020/12/26 07:32:50;;;;;;;20.27;13.57;;;3.60;94.20;;;;;;5064516;28;20020;-79
2020/12/26 07:35:22;;;;;;;21.40;14.23;;;3.60;94.20;;;;;;5070250;28;20435;-79
2020/12/26 07:37:58;;;;;;;22.80;13.40;;;3.60;94.10;;;;;;5067596;28;20490;-79
2020/12/26 07:40:25;;;;;;;21.50;12.77;;;3.60;94.10;;;;;;5063479;28;20025;-79
2020/12/26 07:42:51;;;;;;;22.27;13.37;;;3.60;94.10;;;;;;5059062;28;20102;-78
2020/12/26 07:45:22;;;;;;;23.90;12.53;;;3.60;94.10;;;;;;5048492;28;20033;-79
2020/12/26 07:47:50;;;;;;;20.83;13.50;;;3.60;94.00;;;;;;5054722;28;20070;-79
2020/12/26 07:50:18;;;;;;;21.87;13.33;;;3.50;94.00;;;;;;5069114;28;20025;-79
2020/12/26 07:52:51;;;;;;;19.90;13.03;;;3.50;94.00;;;;;;5062458;28;20052;-78
2020/12/26 07:55:18;;;;;;;19.75;12.45;;;3.50;94.00;;;;;;5057990;28;20468;-78
2020/12/26 07:57:44;;;;;;;22.37;13.37;;;3.50;94.00;;;;;;5069385;28;20028;-78
2020/12/26 08:00:33;;;;;;;23.03;13.13;;;3.50;94.00;;;;;;5064577;28;20029;-78
2020/12/26 08:03:00;;;;;;;22.47;13.20;;;3.60;94.00;;;;;;5060532;28;20033;-79
2020/12/26 08:05:34;;;;;;;21.10;11.70;;;3.60;93.90;;;;;;5051353;28;20516;-79
2020/12/26 08:08:00;;;;;;;20.85;12.80;;;3.50;93.90;;;;;;5060947;28;20021;-79
2020/12/26 08:10:28;;;;;;;19.33;11.40;;;3.60;93.90;;;;;;5057641;28;20076;-79
2020/12/26 08:12:58;;;;;;;19.03;11.40;;;3.60;93.90;;;;;;5059821;28;20381;-79
2020/12/26 08:15:28;;;;;;;17.07;10.80;;;3.60;93.90;;;;;;5052833;28;20028;-78
2020/12/26 08:18:02;;;;;;;17.93;10.57;;;3.60;93.90;;;;;;5052700;28;20108;-79
2020/12/26 08:20:29;;;;;;;18.90;10.95;;;3.60;93.90;;;;;;5051466;28;20511;-79
2020/12/26 08:22:55;;;;;;;18.90;9.80;;;3.60;93.80;;;;;;5058359;28;20029;-78
2020/12/26 08:25:24;;;;;;;19.60;11.73;;;3.60;93.90;;;;;;5061531;28;20082;-78
2020/12/26 08:27:49;;;;;;;20.97;10.97;;;3.60;93.80;;;;;;5070022;28;20043;-79
2020/12/26 08:30:22;;;;;;;19.17;10.23;;;3.60;93.80;;;;;;5068291;28;20532;-78
2020/12/26 08:32:53;;;;;;;16.97;9.80;;;3.60;93.80;;;;;;5056780;28;20021;-79
2020/12/26 08:35:20;;;;;;;23.17;10.67;;;3.60;93.80;;;;;;5060639;28;20044;-79
2020/12/26 08:37:50;;;;;;;21.40;10.27;;;3.70;93.70;;;;;;5069504;28;20032;-79
2020/12/26 08:40:16;;;;;;;15.40;8.83;;;3.70;93.70;;;;;;5058382;28;20507;-79
2020/12/26 08:42:42;;;;;;;16.57;9.57;;;3.70;93.80;;;;;;5067262;28;20120;-80
2020/12/26 08:45:29;;;;;;;16.93;9.40;;;3.70;94.00;;;;;;5062865;28;20037;-78
2020/12/26 08:47:59;;;;;;;19.80;10.60;;;3.70;93.60;;;;;;5068476;28;20373;-78
2020/12/26 08:50:25;;;;;;;21.17;8.70;;;3.70;93.50;;;;;;5066617;28;20017;-78
2020/12/26 08:53:05;;;;;;;15.57;7.83;;;3.80;93.50;;;;;;5065552;28;20025;-79
2020/12/26 08:55:32;;;;;;;17.33;8.73;;;3.80;93.40;;;;;;5067617;28;20036;-79
2020/12/26 08:57:58;;;;;;;14.33;7.83;;;3.80;93.30;;;;;;5063809;28;20029;-78
2020/12/26 09:00:26;;;;;;;15.37;8.20;;;3.80;93.30;;;;;;5055998;28;20059;-78
2020/12/26 09:02:53;;;;;;;13.93;6.77;;;3.80;93.20;;;;;;5074274;28;20031;-79
2020/12/26 09:05:27;;;;;;;15.03;8.07;;;3.80;93.20;;;;;;5075542;28;20469;-79
2020/12/26 09:08:09;;;;;;;13.63;7.53;;;3.80;93.10;;;;;;5074299;28;20052;-79
2020/12/26 09:10:37;;;;;;;13.10;7.27;;;3.80;93.10;;;;;;5041125;28;20059;-79
2020/12/26 09:13:07;;;;;;;14.77;7.47;;;3.90;93.20;;;;;;5075256;28;20021;-79
2020/12/26 09:15:52;;;;;;;13.37;7.73;;;3.90;92.90;;;;;;5060564;28;20101;-78
2020/12/26 09:18:20;;;;;;;14.17;7.07;;;3.90;92.90;;;;;;5064967;28;20025;-79
2020/12/26 09:20:49;;;;;;;13.33;7.23;;;3.90;92.80;;;;;;5062897;28;20545;-79
2020/12/26 09:23:15;;;;;;;15.50;6.53;;;4.00;92.70;;;;;;5067336;28;20025;-79
2020/12/26 09:25:41;;;;;;;15.87;6.27;;;4.10;92.70;;;;;;5064817;28;20043;-79
2020/12/26 09:28:06;;;;;;;11.93;6.57;;;4.10;92.60;;;;;;5062216;28;20029;-79
2020/12/26 09:30:32;;;;;;;12.70;6.77;;;4.20;92.50;;;;;;5054904;28;20032;-79
2020/12/26 09:32:57;;;;;;;11.50;4.97;;;4.30;92.60;;;;;;5059488;28;20053;-79
2020/12/26 09:35:23;;;;;;;9.73;5.10;;;4.50;92.50;;;;;;5064685;28;20029;-79
2020/12/26 09:37:53;;;;;;;13.10;4.83;;;4.70;92.50;;;;;;5057599;28;20064;-78
2020/12/26 09:40:19;;;;;;;8.37;4.73;;;4.90;92.20;;;;;;5065028;28;20039;-79
2020/12/26 09:42:51;;;;;;;11.37;5.23;;;5.00;91.70;;;;;;5073922;28;20036;-80
2020/12/26 09:45:18;;;;;;;9.60;5.03;;;5.10;91.40;;;;;;5063140;28;20020;-80
2020/12/26 09:47:43;;;;;;;11.23;4.17;;;5.10;91.20;;;;;;5064670;28;20124;-81
2020/12/26 09:50:09;;;;;;;9.50;4.70;;;5.30;91.70;;;;;;5065918;28;20484;-78
2020/12/26 09:52:34;;;;;;;10.83;3.63;;;5.70;92.10;;;;;;5051805;28;20087;-80
2020/12/26 09:55:00;;;;;;;7.27;2.90;;;6.10;92.10;;;;;;5052928;28;20060;-79
2020/12/26 09:57:28;;;;;;;8.93;3.00;;;6.50;92.40;;;;;;5053447;28;20020;-79
2020/12/26 09:59:53;;;;;;;10.43;2.50;;;6.80;92.40;;;;;;5058509;28;20028;-80
2020/12/26 10:02:20;;;;;;;9.37;2.63;;;7.20;91.60;;;;;;5055536;28;20028;-78
2020/12/26 10:04:46;;;;;;;8.47;2.90;;;7.50;91.00;;;;;;5054682;28;20029;-79
2020/12/26 10:07:12;;;;;;;7.67;2.57;;;7.80;89.80;;;;;;5053418;28;20032;-79
2020/12/26 10:09:37;;;;;;;9.63;2.40;;;8.10;87.60;;;;;;5051189;28;20056;-78
2020/12/26 10:12:03;;;;;;;6.57;2.17;;;8.50;86.90;;;;;;5053304;28;20021;-78
2020/12/26 10:14:28;;;;;;;8.77;2.30;;;8.60;80.70;;;;;;5065335;28;20078;-78
2020/12/26 10:16:54;;;;;;;5.13;2.10;;;8.30;79.60;;;;;;5054599;28;20053;-79
2020/12/26 10:19:19;;;;;;;7.03;2.67;;;8.00;77.80;;;;;;5058550;28;20025;-79
2020/12/26 10:21:51;;;;;;;6.20;2.80;;;7.80;78.00;;;;;;5061495;28;20035;-76
2020/12/26 10:24:17;;;;;;;6.83;2.70;;;7.50;77.10;;;;;;5053996;28;20044;-77
2020/12/26 10:26:43;;;;;;;5.50;2.63;;;7.10;77.90;;;;;;5052782;28;20025;-77
2020/12/26 10:29:08;;;;;;;6.57;2.90;;;6.90;78.70;;;;;;5053958;28;20481;-78
2020/12/26 10:31:34;;;;;;;7.40;3.17;;;6.60;79.10;;;;;;5052720;28;20021;-78
2020/12/26 10:33:59;;;;;;;5.93;2.60;;;6.40;79.80;;;;;;5052948;28;20032;-78
2020/12/26 10:36:25;;;;;;;8.53;3.57;;;6.20;80.70;;;;;;5052808;28;20029;-78
2020/12/26 10:38:51;;;;;;;11.80;4.00;;;6.00;81.30;;;;;;5035963;28;20025;-78
2020/12/26 10:41:16;;;;;;;5.93;2.53;;;5.90;82.00;;;;;;5053555;28;20392;-78
2020/12/26 10:43:42;;;;;;;6.37;3.00;;;5.70;82.30;;;;;;5035714;28;20067;-79
2020/12/26 10:46:08;;;;;;;8.83;2.63;;;5.70;83.10;;;;;;5052707;28;20025;-79
2020/12/26 10:48:33;;;;;;;14.10;2.93;;;5.60;83.40;;;;;;5053744;28;20457;-78
2020/12/26 10:50:59;;;;;;;10.00;2.87;;;5.60;83.40;;;;;;5053658;28;20024;-80
2020/12/26 10:53:24;;;;;;;11.10;3.37;;;5.50;83.70;;;;;;5052644;28;20527;-78
2020/12/26 10:55:50;;;;;;;9.60;2.50;;;5.50;83.80;;;;;;5052513;28;20060;-78
2020/12/26 10:58:15;;;;;;;7.63;2.80;;;5.50;84.60;;;;;;5035769;28;20028;-78
2020/12/26 11:00:41;;;;;;;8.93;2.87;;;5.40;84.20;;;;;;5051953;28;20120;-80
2020/12/26 11:03:06;;;;;;;6.63;2.37;;;5.50;84.10;;;;;;5052415;28;20090;-78
2020/12/26 11:05:32;;;;;;;8.20;3.17;;;5.40;84.40;;;;;;5035782;28;20116;-79
2020/12/26 11:07:58;;;;;;;7.57;2.53;;;5.40;84.70;;;;;;5053522;28;20021;-78
2020/12/26 11:10:23;;;;;;;10.77;2.83;;;5.40;84.80;;;;;;5035444;28;20151;-78
2020/12/26 11:12:49;;;;;;;7.63;3.27;;;5.40;84.70;;;;;;5052020;28;20036;-78
2020/12/26 11:15:14;;;;;;;7.27;2.53;;;5.30;84.80;;;;;;5035469;28;20049;-78
2020/12/26 11:17:40;;;;;;;7.00;2.77;;;5.30;85.10;;;;;;5053199;28;20037;-78
2020/12/26 11:20:06;;;;;;;8.13;2.80;;;5.30;85.20;;;;;;5052269;28;20056;-79
2020/12/26 11:22:31;;;;;;;7.10;2.57;;;5.20;85.30;;;;;;5035487;28;20021;-79
2020/12/26 11:24:57;;;;;;;8.20;2.17;;;5.30;85.70;;;;;;5051880;28;20059;-79
2020/12/26 11:27:23;;;;;;;13.87;2.90;;;5.40;85.90;;;;;;5051923;28;20025;-79
2020/12/26 11:29:48;;;;;;;6.57;2.50;;;5.40;85.80;;;;;;5035248;28;20025;-78
2020/12/26 11:32:14;;;;;;;5.67;2.47;;;5.30;85.70;;;;;;5052020;28;20033;-78
2020/12/26 11:34:40;;;;;;;10.73;2.60;;;5.30;85.90;;;;;;5053252;28;20053;-78
2020/12/26 11:37:08;;;;;;;9.20;3.27;;;5.30;86.00;;;;;;5052868;28;20114;-79
2020/12/26 11:39:33;;;;;;;10.50;2.50;;;5.20;86.10;;;;;;5035583;28;20143;-79
2020/12/26 11:41:59;;;;;;;8.43;2.90;;;5.30;86.30;;;;;;5051845;28;20060;-79
2020/12/26 11:44:25;;;;;;;8.93;3.20;;;5.30;86.10;;;;;;5051769;28;20040;-78
2020/12/26 11:46:50;;;;;;;12.77;4.00;;;5.30;86.30;;;;;;5035034;28;20029;-79
2020/12/26 11:49:20;;;;;;;11.93;3.30;;;5.30;86.60;;;;;;5051930;28;20106;-79
2020/12/26 11:51:46;;;;;;;10.43;3.10;;;5.30;86.60;;;;;;5035661;28;20063;-79
2020/12/26 11:54:11;;;;;;;8.07;2.70;;;5.40;86.50;;;;;;5052761;28;20451;-78
2020/12/26 11:56:37;;;;;;;9.63;2.27;;;5.40;86.40;;;;;;5051537;28;20033;-79
2020/12/26 11:59:02;;;;;;;9.33;3.07;;;5.40;86.40;;;;;;5051852;28;20040;-78
2020/12/26 12:01:29;;;;;;;6.60;2.77;;;5.50;86.60;;;;;;5051714;28;20066;-79
2020/12/26 12:03:55;;;;;;;5.13;2.47;;;5.50;86.60;;;;;;5051662;28;20082;-79
2020/12/26 12:06:20;;;;;;;13.60;2.53;;;5.50;86.70;;;;;;5053135;28;20450;-79
2020/12/26 12:08:46;;;;;;;8.93;2.73;;;5.50;86.70;;;;;;5052645;28;20171;-78
2020/12/26 12:11:12;;;;;;;9.20;2.87;;;5.50;86.50;;;;;;5051613;28;20032;-80
2020/12/26 12:13:38;;;;;;;6.80;2.50;;;5.50;86.30;;;;;;5055321;28;20021;-79
2020/12/26 12:16:04;;;;;;;10.33;3.17;;;5.50;86.50;;;;;;5055350;28;20123;-79
2020/12/26 12:18:29;;;;;;;12.33;2.70;;;5.60;86.70;;;;;;5055287;28;20484;-80
2020/12/26 12:20:55;;;;;;;7.63;2.80;;;5.50;86.30;;;;;;5055289;28;20029;-80
2020/12/26 12:23:21;;;;;;;8.90;2.60;;;5.60;86.50;;;;;;5055192;28;20085;-78
2020/12/26 12:25:46;;;;;;;8.93;3.20;;;5.60;86.40;;;;;;5054955;28;20124;-80
2020/12/26 12:28:12;;;;;;;6.43;2.60;;;5.60;85.90;;;;;;5054952;28;20032;-80
2020/12/26 12:30:37;;;;;;;7.97;2.00;;;5.60;85.70;;;;;;5055047;28;20101;-79
2020/12/26 12:33:03;;;;;;;11.67;3.20;;;5.60;85.60;;;;;;5038452;28;20054;-81
2020/12/26 12:35:29;;;;;;;8.10;2.60;;;5.60;85.70;;;;;;5055107;28;20033;-81
2020/12/26 12:37:54;;;;;;;5.30;2.10;;;5.70;85.60;;;;;;5056137;28;20441;-80
2020/12/26 12:40:20;;;;;;;5.90;2.67;;;5.70;84.90;;;;;;5056122;28;20040;-80
2020/12/26 12:42:46;;;;;;;8.40;2.50;;;5.80;84.40;;;;;;5054782;28;20017;-80
2020/12/26 12:45:12;;;;;;;5.90;1.83;;;5.70;84.80;;;;;;5056046;28;20029;-79
2020/12/26 12:47:38;;;;;;;5.37;2.20;;;5.80;85.00;;;;;;5038512;28;20370;-79